Roma, Italy

04:41 PM CET del 03 Dicembre 2016 (GMT +0100)
Colosseo | | Change Station

Alt. 164 ft 41.90 °N, 12.48 °E | Updated 11 seconds ago

Mostly Cloudy
Molto nuvoloso
54.5 °F
Sembra 54.5 °F
N
0.2
Vento Variabile Vento da SSO
Gusts 2.5 mph

Oggi
Massima -- | Minima -- °F
--% Possibilità di precip.
Ieri
Massima -- | Minima -- °F
Precip. -- in
Pressione 30.09 in
Visibilità 6.2 miglia
Nuvole Molto nuvoloso 2500 ft
Punto di rugiada 47 °F
Umidità 75%
Piovosità 0.00 in
Spessore del manto nevoso Non disponibile.
7:20 AM 4:39 PM
Luna crescente, 15% visible
METAR LIRA 031520Z 08005KT 9999 BKN025 11/08 Q1019
Pressione 30.09 in
Visibilità 6.2 miglia
Nuvole Molto nuvoloso 2500 ft
Punto di rugiada 47 °F
Umidità 75%
Piovosità 0.00 in
Spessore del manto nevoso Non disponibile.
7:20 AM 4:39 PM
Luna crescente, 15% visible
METAR LIRA 031520Z 08005KT 9999 BKN025 11/08 Q1019

10-Day Weather Forecast

×

Almanac

Astronomia

Dec. 03, 2016 Alba Tramonto
Ora attuale
Crepuscolo civile
Crepuscolo nautico
Crepuscolo astronomico
Luna
Estensione della luce visibile
Lunghezza del giorno
Tomorrow will be .
, % of the Moon is Illuminated

Gli estremi di oggi

Massime Regione Minime Regione

Community

WunderPhotos

Upload Photos

1,955,427 foto caricate!

WunderBlog® & News

Nearby

Qualità dell'aria

  Qualità dell'aria Indice AQ Inquinante
Not available.

Profondità neve

Stazione Profondità Altitudine

Attività sismica

Città  Distanza Mag. Data & Ora
Minimo Magnitudo Mostrato è 2.5.

Temperature delle acque costiere

Località Temperatura

Stations

Stazioni meteo nelle vicinanze

Ubicazione della stazione Temp. Raffreddamento del vento Punto di rugiada Umidità Vento Precip. Alt. Aggiornato Tipo